sensor_id;sensor_type;location;lat;lon;timestamp;temperature;humidity
38726;DHT22;24474;48.906;8.808;2023-12-22T00:01:53;7.90;99.90
38726;DHT22;24474;48.906;8.808;2023-12-22T00:04:18;7.90;99.90
38726;DHT22;24474;48.906;8.808;2023-12-22T00:06:44;7.90;99.90
38726;DHT22;24474;48.906;8.808;2023-12-22T00:09:10;7.90;99.90
38726;DHT22;24474;48.906;8.808;2023-12-22T00:11:36;7.90;99.90
38726;DHT22;24474;48.906;8.808;2023-12-22T00:14:01;8.00;99.90
38726;DHT22;24474;48.906;8.808;2023-12-22T00:16:27;7.90;99.90
38726;DHT22;24474;48.906;8.808;2023-12-22T00:18:52;8.00;99.90
38726;DHT22;24474;48.906;8.808;2023-12-22T00:21:19;7.90;99.90
38726;DHT22;24474;48.906;8.808;2023-12-22T00:23:45;7.90;99.90
38726;DHT22;24474;48.906;8.808;2023-12-22T00:26:10;7.90;99.90
38726;DHT22;24474;48.906;8.808;2023-12-22T00:28:36;7.90;99.90
38726;DHT22;24474;48.906;8.808;2023-12-22T00:31:01;7.90;99.90
38726;DHT22;24474;48.906;8.808;2023-12-22T00:33:27;7.90;99.90
38726;DHT22;24474;48.906;8.808;2023-12-22T00:35:52;7.70;99.90
38726;DHT22;24474;48.906;8.808;2023-12-22T00:38:18;7.70;99.90
38726;DHT22;24474;48.906;8.808;2023-12-22T00:40:44;7.70;99.90
38726;DHT22;24474;48.906;8.808;2023-12-22T00:43:09;7.70;99.90
38726;DHT22;24474;48.906;8.808;2023-12-22T00:45:35;7.70;99.90
38726;DHT22;24474;48.906;8.808;2023-12-22T00:48:00;7.70;99.90
38726;DHT22;24474;48.906;8.808;2023-12-22T00:50:26;7.70;99.90
38726;DHT22;24474;48.906;8.808;2023-12-22T00:52:52;7.70;99.90
38726;DHT22;24474;48.906;8.808;2023-12-22T00:55:17;7.70;99.90
38726;DHT22;24474;48.906;8.808;2023-12-22T00:57:43;7.60;99.90
38726;DHT22;24474;48.906;8.808;2023-12-22T01:00:09;7.70;99.90
38726;DHT22;24474;48.906;8.808;2023-12-22T01:02:38;7.60;99.90
38726;DHT22;24474;48.906;8.808;2023-12-22T01:05:04;7.60;99.90
38726;DHT22;24474;48.906;8.808;2023-12-22T01:07:30;7.60;99.90
38726;DHT22;24474;48.906;8.808;2023-12-22T01:09:56;7.70;99.90
38726;DHT22;24474;48.906;8.808;2023-12-22T01:12:27;7.60;99.90
38726;DHT22;24474;48.906;8.808;2023-12-22T01:14:53;7.60;99.90
38726;DHT22;24474;48.906;8.808;2023-12-22T01:17:18;7.60;99.90
38726;DHT22;24474;48.906;8.808;2023-12-22T01:19:44;7.60;99.90
38726;DHT22;24474;48.906;8.808;2023-12-22T01:22:10;7.60;99.90
38726;DHT22;24474;48.906;8.808;2023-12-22T01:24:36;7.50;99.90
38726;DHT22;24474;48.906;8.808;2023-12-22T01:27:05;7.50;99.90
38726;DHT22;24474;48.906;8.808;2023-12-22T01:29:30;7.50;99.90
38726;DHT22;24474;48.906;8.808;2023-12-22T01:31:56;7.50;99.90
38726;DHT22;24474;48.906;8.808;2023-12-22T01:34:24;7.50;99.90
38726;DHT22;24474;48.906;8.808;2023-12-22T01:36:49;7.50;99.90
38726;DHT22;24474;48.906;8.808;2023-12-22T01:39:16;7.50;99.90
38726;DHT22;24474;48.906;8.808;2023-12-22T01:41:41;7.40;99.90
38726;DHT22;24474;48.906;8.808;2023-12-22T01:44:07;7.40;99.90
38726;DHT22;24474;48.906;8.808;2023-12-22T01:46:33;7.40;99.90
38726;DHT22;24474;48.906;8.808;2023-12-22T01:49:00;7.40;99.90
38726;DHT22;24474;48.906;8.808;2023-12-22T01:51:33;7.40;99.90
38726;DHT22;24474;48.906;8.808;2023-12-22T01:54:00;7.40;99.90
38726;DHT22;24474;48.906;8.808;2023-12-22T01:56:26;7.40;99.90
38726;DHT22;24474;48.906;8.808;2023-12-22T01:58:59;7.40;99.90
38726;DHT22;24474;48.906;8.808;2023-12-22T02:01:25;7.40;99.90
38726;DHT22;24474;48.906;8.808;2023-12-22T02:03:54;7.40;99.90
38726;DHT22;24474;48.906;8.808;2023-12-22T02:06:20;7.40;99.90
38726;DHT22;24474;48.906;8.808;2023-12-22T02:08:49;7.30;99.90
38726;DHT22;24474;48.906;8.808;2023-12-22T02:11:15;7.30;99.90
38726;DHT22;24474;48.906;8.808;2023-12-22T02:13:42;7.30;99.90
38726;DHT22;24474;48.906;8.808;2023-12-22T02:16:26;7.30;99.90
38726;DHT22;24474;48.906;8.808;2023-12-22T02:18:57;7.20;99.90
38726;DHT22;24474;48.906;8.808;2023-12-22T02:21:24;7.30;99.90
38726;DHT22;24474;48.906;8.808;2023-12-22T02:23:50;7.30;99.90
38726;DHT22;24474;48.906;8.808;2023-12-22T02:26:27;7.30;99.90
38726;DHT22;24474;48.906;8.808;2023-12-22T02:28:56;7.30;99.90
38726;DHT22;24474;48.906;8.808;2023-12-22T02:31:37;7.30;99.90
38726;DHT22;24474;48.906;8.808;2023-12-22T02:34:07;7.20;99.90
38726;DHT22;24474;48.906;8.808;2023-12-22T02:36:36;7.30;99.90
38726;DHT22;24474;48.906;8.808;2023-12-22T02:39:05;7.30;99.90
38726;DHT22;24474;48.906;8.808;2023-12-22T02:41:31;7.30;99.90
38726;DHT22;24474;48.906;8.808;2023-12-22T02:43:57;7.30;99.90
38726;DHT22;24474;48.906;8.808;2023-12-22T02:46:23;7.30;99.90
38726;DHT22;24474;48.906;8.808;2023-12-22T02:48:49;7.30;99.90
38726;DHT22;24474;48.906;8.808;2023-12-22T02:51:15;7.30;99.90
38726;DHT22;24474;48.906;8.808;2023-12-22T02:53:40;7.40;99.90
38726;DHT22;24474;48.906;8.808;2023-12-22T02:56:06;7.30;99.90
38726;DHT22;24474;48.906;8.808;2023-12-22T02:58:32;7.30;99.90
38726;DHT22;24474;48.906;8.808;2023-12-22T03:00:57;7.30;99.90
38726;DHT22;24474;48.906;8.808;2023-12-22T03:03:23;7.30;99.90
38726;DHT22;24474;48.906;8.808;2023-12-22T03:05:49;7.30;99.90
38726;DHT22;24474;48.906;8.808;2023-12-22T03:08:14;7.30;99.90
38726;DHT22;24474;48.906;8.808;2023-12-22T03:10:40;7.30;99.90
38726;DHT22;24474;48.906;8.808;2023-12-22T03:13:05;7.30;99.90
38726;DHT22;24474;48.906;8.808;2023-12-22T03:15:31;7.30;99.90
38726;DHT22;24474;48.906;8.808;2023-12-22T03:17:57;7.30;99.90
38726;DHT22;24474;48.906;8.808;2023-12-22T03:20:22;7.30;99.90
38726;DHT22;24474;48.906;8.808;2023-12-22T03:22:48;7.30;99.90
38726;DHT22;24474;48.906;8.808;2023-12-22T03:25:14;7.30;99.90
38726;DHT22;24474;48.906;8.808;2023-12-22T03:27:39;7.30;99.90
38726;DHT22;24474;48.906;8.808;2023-12-22T03:30:05;7.30;99.90
38726;DHT22;24474;48.906;8.808;2023-12-22T03:32:31;7.30;99.90
38726;DHT22;24474;48.906;8.808;2023-12-22T03:34:57;7.40;99.90
38726;DHT22;24474;48.906;8.808;2023-12-22T03:37:22;7.40;99.90
38726;DHT22;24474;48.906;8.808;2023-12-22T03:39:48;7.40;99.90
38726;DHT22;24474;48.906;8.808;2023-12-22T03:42:14;7.40;99.90
38726;DHT22;24474;48.906;8.808;2023-12-22T03:44:39;7.40;99.90
38726;DHT22;24474;48.906;8.808;2023-12-22T03:47:05;7.30;99.90
38726;DHT22;24474;48.906;8.808;2023-12-22T03:49:30;7.30;99.90
38726;DHT22;24474;48.906;8.808;2023-12-22T03:51:56;7.20;99.90
38726;DHT22;24474;48.906;8.808;2023-12-22T03:54:22;7.20;99.90
38726;DHT22;24474;48.906;8.808;2023-12-22T03:56:47;7.20;99.90
38726;DHT22;24474;48.906;8.808;2023-12-22T03:59:13;7.10;99.90
38726;DHT22;24474;48.906;8.808;2023-12-22T04:01:38;7.10;99.90
38726;DHT22;24474;48.906;8.808;2023-12-22T04:04:04;7.10;99.90
38726;DHT22;24474;48.906;8.808;2023-12-22T04:06:30;7.00;99.90
38726;DHT22;24474;48.906;8.808;2023-12-22T04:08:56;7.00;99.90
38726;DHT22;24474;48.906;8.808;2023-12-22T04:11:21;7.00;99.90
38726;DHT22;24474;48.906;8.808;2023-12-22T04:13:47;7.00;99.90
38726;DHT22;24474;48.906;8.808;2023-12-22T04:16:12;6.90;99.90
38726;DHT22;24474;48.906;8.808;2023-12-22T04:18:38;6.90;99.90
38726;DHT22;24474;48.906;8.808;2023-12-22T04:21:03;6.90;99.90
38726;DHT22;24474;48.906;8.808;2023-12-22T04:23:29;6.90;99.90
38726;DHT22;24474;48.906;8.808;2023-12-22T04:25:55;6.90;99.90
38726;DHT22;24474;48.906;8.808;2023-12-22T04:28:20;6.90;99.90
38726;DHT22;24474;48.906;8.808;2023-12-22T04:30:46;6.90;99.90
38726;DHT22;24474;48.906;8.808;2023-12-22T04:33:12;6.90;99.90
38726;DHT22;24474;48.906;8.808;2023-12-22T04:35:37;6.90;99.90
38726;DHT22;24474;48.906;8.808;2023-12-22T04:38:03;6.90;99.90
38726;DHT22;24474;48.906;8.808;2023-12-22T04:40:29;6.90;99.90
38726;DHT22;24474;48.906;8.808;2023-12-22T04:42:54;6.90;99.90
38726;DHT22;24474;48.906;8.808;2023-12-22T04:45:20;6.90;99.90
38726;DHT22;24474;48.906;8.808;2023-12-22T04:47:46;6.90;99.90
38726;DHT22;24474;48.906;8.808;2023-12-22T04:50:11;6.90;99.90
38726;DHT22;24474;48.906;8.808;2023-12-22T04:52:37;6.90;99.90
38726;DHT22;24474;48.906;8.808;2023-12-22T04:55:03;6.90;99.90
38726;DHT22;24474;48.906;8.808;2023-12-22T04:57:29;6.90;99.90
38726;DHT22;24474;48.906;8.808;2023-12-22T04:59:54;6.90;99.90
38726;DHT22;24474;48.906;8.808;2023-12-22T05:02:20;6.90;99.90
38726;DHT22;24474;48.906;8.808;2023-12-22T05:04:45;7.00;99.90
38726;DHT22;24474;48.906;8.808;2023-12-22T05:07:11;7.00;99.90
38726;DHT22;24474;48.906;8.808;2023-12-22T05:09:37;7.00;99.90
38726;DHT22;24474;48.906;8.808;2023-12-22T05:12:03;7.00;99.90
38726;DHT22;24474;48.906;8.808;2023-12-22T05:14:28;7.00;99.90
38726;DHT22;24474;48.906;8.808;2023-12-22T05:16:54;7.00;99.90
38726;DHT22;24474;48.906;8.808;2023-12-22T05:19:21;7.00;99.90
38726;DHT22;24474;48.906;8.808;2023-12-22T05:21:47;7.00;99.90
38726;DHT22;24474;48.906;8.808;2023-12-22T05:24:14;7.00;99.90
38726;DHT22;24474;48.906;8.808;2023-12-22T05:26:39;7.10;99.90
38726;DHT22;24474;48.906;8.808;2023-12-22T05:29:05;7.00;99.90
38726;DHT22;24474;48.906;8.808;2023-12-22T05:31:33;7.00;99.90
38726;DHT22;24474;48.906;8.808;2023-12-22T05:33:59;7.00;99.90
38726;DHT22;24474;48.906;8.808;2023-12-22T05:36:25;7.10;99.90
38726;DHT22;24474;48.906;8.808;2023-12-22T05:38:51;7.10;99.90
38726;DHT22;24474;48.906;8.808;2023-12-22T05:41:17;7.10;99.90
38726;DHT22;24474;48.906;8.808;2023-12-22T05:43:42;7.10;99.90
38726;DHT22;24474;48.906;8.808;2023-12-22T05:46:08;7.20;99.90
38726;DHT22;24474;48.906;8.808;2023-12-22T05:48:36;7.20;99.90
38726;DHT22;24474;48.906;8.808;2023-12-22T05:51:02;7.20;99.90
38726;DHT22;24474;48.906;8.808;2023-12-22T05:53:28;7.20;99.90
38726;DHT22;24474;48.906;8.808;2023-12-22T05:55:55;7.20;99.90
38726;DHT22;24474;48.906;8.808;2023-12-22T05:58:20;7.30;99.90
38726;DHT22;24474;48.906;8.808;2023-12-22T06:00:46;7.30;99.90
38726;DHT22;24474;48.906;8.808;2023-12-22T06:03:11;7.30;99.90
38726;DHT22;24474;48.906;8.808;2023-12-22T06:05:37;7.30;99.90
38726;DHT22;24474;48.906;8.808;2023-12-22T06:08:03;7.40;99.90
38726;DHT22;24474;48.906;8.808;2023-12-22T06:10:29;7.40;99.90
38726;DHT22;24474;48.906;8.808;2023-12-22T06:12:54;7.40;99.90
38726;DHT22;24474;48.906;8.808;2023-12-22T06:15:20;7.40;99.90
38726;DHT22;24474;48.906;8.808;2023-12-22T06:17:45;7.40;99.90
38726;DHT22;24474;48.906;8.808;2023-12-22T06:20:11;7.40;99.90
38726;DHT22;24474;48.906;8.808;2023-12-22T06:22:37;7.40;99.90
38726;DHT22;24474;48.906;8.808;2023-12-22T06:25:03;7.40;99.90
38726;DHT22;24474;48.906;8.808;2023-12-22T06:27:33;7.40;99.90
38726;DHT22;24474;48.906;8.808;2023-12-22T06:29:58;7.40;99.90
38726;DHT22;24474;48.906;8.808;2023-12-22T06:32:24;7.40;99.90
38726;DHT22;24474;48.906;8.808;2023-12-22T06:34:50;7.40;99.90
38726;DHT22;24474;48.906;8.808;2023-12-22T06:37:15;7.50;99.90
38726;DHT22;24474;48.906;8.808;2023-12-22T06:39:42;7.40;99.90
38726;DHT22;24474;48.906;8.808;2023-12-22T06:42:08;7.40;99.90
38726;DHT22;24474;48.906;8.808;2023-12-22T06:44:37;7.50;99.90
38726;DHT22;24474;48.906;8.808;2023-12-22T06:47:02;7.50;99.90
38726;DHT22;24474;48.906;8.808;2023-12-22T06:49:28;7.50;99.90
38726;DHT22;24474;48.906;8.808;2023-12-22T06:51:54;7.50;99.90
38726;DHT22;24474;48.906;8.808;2023-12-22T06:54:19;7.50;99.90
38726;DHT22;24474;48.906;8.808;2023-12-22T06:56:46;7.40;99.90
38726;DHT22;24474;48.906;8.808;2023-12-22T06:59:12;7.40;99.90
38726;DHT22;24474;48.906;8.808;2023-12-22T07:01:39;7.40;99.90
38726;DHT22;24474;48.906;8.808;2023-12-22T07:04:05;7.40;99.90
38726;DHT22;24474;48.906;8.808;2023-12-22T07:06:33;7.40;99.90
38726;DHT22;24474;48.906;8.808;2023-12-22T07:11:42;7.30;99.90
38726;DHT22;24474;48.906;8.808;2023-12-22T07:14:08;7.30;99.90
38726;DHT22;24474;48.906;8.808;2023-12-22T07:16:36;7.30;99.90
38726;DHT22;24474;48.906;8.808;2023-12-22T07:19:04;7.30;99.90
38726;DHT22;24474;48.906;8.808;2023-12-22T07:21:30;7.30;99.90
38726;DHT22;24474;48.906;8.808;2023-12-22T07:23:56;7.30;99.90
38726;DHT22;24474;48.906;8.808;2023-12-22T07:26:23;7.30;99.90
38726;DHT22;24474;48.906;8.808;2023-12-22T07:28:50;7.30;99.90
38726;DHT22;24474;48.906;8.808;2023-12-22T07:31:16;7.40;99.90
38726;DHT22;24474;48.906;8.808;2023-12-22T07:33:43;7.30;99.90
38726;DHT22;24474;48.906;8.808;2023-12-22T07:36:09;7.40;99.90
38726;DHT22;24474;48.906;8.808;2023-12-22T07:38:35;7.30;99.90
38726;DHT22;24474;48.906;8.808;2023-12-22T07:41:01;7.30;99.90
38726;DHT22;24474;48.906;8.808;2023-12-22T07:43:26;7.30;99.90
38726;DHT22;24474;48.906;8.808;2023-12-22T07:45:52;7.30;99.90
38726;DHT22;24474;48.906;8.808;2023-12-22T07:48:18;7.30;99.90
38726;DHT22;24474;48.906;8.808;2023-12-22T07:50:43;7.20;99.90
38726;DHT22;24474;48.906;8.808;2023-12-22T07:53:10;7.20;99.90
38726;DHT22;24474;48.906;8.808;2023-12-22T07:55:36;7.30;99.90
38726;DHT22;24474;48.906;8.808;2023-12-22T07:58:05;7.20;99.90
38726;DHT22;24474;48.906;8.808;2023-12-22T08:00:31;7.20;99.90
38726;DHT22;24474;48.906;8.808;2023-12-22T08:02:58;7.20;99.90
38726;DHT22;24474;48.906;8.808;2023-12-22T08:05:25;7.20;99.90
38726;DHT22;24474;48.906;8.808;2023-12-22T08:07:51;7.10;99.90
38726;DHT22;24474;48.906;8.808;2023-12-22T08:10:16;7.10;99.90
38726;DHT22;24474;48.906;8.808;2023-12-22T08:12:43;7.10;99.90
38726;DHT22;24474;48.906;8.808;2023-12-22T08:15:09;7.10;99.90
38726;DHT22;24474;48.906;8.808;2023-12-22T08:17:47;7.10;99.90
38726;DHT22;24474;48.906;8.808;2023-12-22T08:20:19;7.10;99.90
38726;DHT22;24474;48.906;8.808;2023-12-22T08:22:46;7.10;99.90
38726;DHT22;24474;48.906;8.808;2023-12-22T08:25:12;7.10;99.90
38726;DHT22;24474;48.906;8.808;2023-12-22T08:27:38;7.10;99.90
38726;DHT22;24474;48.906;8.808;2023-12-22T08:30:04;7.10;99.90
38726;DHT22;24474;48.906;8.808;2023-12-22T08:32:30;7.10;99.90
38726;DHT22;24474;48.906;8.808;2023-12-22T08:34:59;7.10;99.90
38726;DHT22;24474;48.906;8.808;2023-12-22T08:37:24;7.10;99.90
38726;DHT22;24474;48.906;8.808;2023-12-22T08:39:50;7.20;99.90
38726;DHT22;24474;48.906;8.808;2023-12-22T08:42:17;7.20;99.90
38726;DHT22;24474;48.906;8.808;2023-12-22T08:44:42;7.20;99.90
38726;DHT22;24474;48.906;8.808;2023-12-22T08:47:08;7.20;99.90
38726;DHT22;24474;48.906;8.808;2023-12-22T08:49:34;7.10;99.90
38726;DHT22;24474;48.906;8.808;2023-12-22T08:52:00;7.20;99.90
38726;DHT22;24474;48.906;8.808;2023-12-22T08:54:25;7.20;99.90
38726;DHT22;24474;48.906;8.808;2023-12-22T08:56:51;7.30;99.90
38726;DHT22;24474;48.906;8.808;2023-12-22T08:59:18;7.20;99.90
38726;DHT22;24474;48.906;8.808;2023-12-22T09:01:43;7.30;99.90
38726;DHT22;24474;48.906;8.808;2023-12-22T09:04:10;7.30;99.90
38726;DHT22;24474;48.906;8.808;2023-12-22T09:06:36;7.30;99.90
38726;DHT22;24474;48.906;8.808;2023-12-22T09:09:02;7.30;99.90
38726;DHT22;24474;48.906;8.808;2023-12-22T09:11:29;7.30;99.90
38726;DHT22;24474;48.906;8.808;2023-12-22T09:13:55;7.30;99.90
38726;DHT22;24474;48.906;8.808;2023-12-22T09:16:21;7.40;99.90
38726;DHT22;24474;48.906;8.808;2023-12-22T09:18:47;7.40;99.90
38726;DHT22;24474;48.906;8.808;2023-12-22T09:21:15;7.40;99.90
38726;DHT22;24474;48.906;8.808;2023-12-22T09:23:41;7.40;99.90
38726;DHT22;24474;48.906;8.808;2023-12-22T09:26:10;7.40;99.90
38726;DHT22;24474;48.906;8.808;2023-12-22T09:28:36;7.50;99.90
38726;DHT22;24474;48.906;8.808;2023-12-22T09:31:03;7.50;99.90
38726;DHT22;24474;48.906;8.808;2023-12-22T09:33:32;7.50;99.90
38726;DHT22;24474;48.906;8.808;2023-12-22T09:35:57;7.50;99.90
38726;DHT22;24474;48.906;8.808;2023-12-22T09:38:23;7.50;99.90
38726;DHT22;24474;48.906;8.808;2023-12-22T09:40:52;7.60;99.90
38726;DHT22;24474;48.906;8.808;2023-12-22T09:43:19;7.50;99.90
38726;DHT22;24474;48.906;8.808;2023-12-22T09:45:49;7.60;99.90
38726;DHT22;24474;48.906;8.808;2023-12-22T09:48:21;7.60;99.90
38726;DHT22;24474;48.906;8.808;2023-12-22T09:50:54;7.60;99.90
38726;DHT22;24474;48.906;8.808;2023-12-22T09:53:20;7.60;99.90
38726;DHT22;24474;48.906;8.808;2023-12-22T09:55:50;7.60;99.90
38726;DHT22;24474;48.906;8.808;2023-12-22T09:58:15;7.70;99.90
38726;DHT22;24474;48.906;8.808;2023-12-22T10:00:42;7.70;99.90
38726;DHT22;24474;48.906;8.808;2023-12-22T10:03:10;7.70;99.90
38726;DHT22;24474;48.906;8.808;2023-12-22T10:05:41;7.70;99.90
38726;DHT22;24474;48.906;8.808;2023-12-22T10:08:08;7.70;99.90
38726;DHT22;24474;48.906;8.808;2023-12-22T10:10:39;7.70;99.90
38726;DHT22;24474;48.906;8.808;2023-12-22T10:13:05;7.70;99.90
38726;DHT22;24474;48.906;8.808;2023-12-22T10:15:41;7.70;99.90
38726;DHT22;24474;48.906;8.808;2023-12-22T10:18:09;7.70;99.90
38726;DHT22;24474;48.906;8.808;2023-12-22T10:20:35;7.80;99.90
38726;DHT22;24474;48.906;8.808;2023-12-22T10:23:01;7.80;99.90
38726;DHT22;24474;48.906;8.808;2023-12-22T10:25:30;7.80;99.90
38726;DHT22;24474;48.906;8.808;2023-12-22T10:27:56;7.80;99.90
38726;DHT22;24474;48.906;8.808;2023-12-22T10:30:23;7.80;99.90
38726;DHT22;24474;48.906;8.808;2023-12-22T10:32:53;7.80;99.90
38726;DHT22;24474;48.906;8.808;2023-12-22T10:35:22;7.80;99.90
38726;DHT22;24474;48.906;8.808;2023-12-22T10:37:48;7.80;99.90
38726;DHT22;24474;48.906;8.808;2023-12-22T10:40:17;7.80;99.90
38726;DHT22;24474;48.906;8.808;2023-12-22T10:42:43;7.80;99.90
38726;DHT22;24474;48.906;8.808;2023-12-22T10:45:09;7.80;99.90
38726;DHT22;24474;48.906;8.808;2023-12-22T10:47:37;7.80;99.90
38726;DHT22;24474;48.906;8.808;2023-12-22T10:50:03;7.80;99.90
38726;DHT22;24474;48.906;8.808;2023-12-22T10:52:31;7.80;99.90
38726;DHT22;24474;48.906;8.808;2023-12-22T10:54:58;7.70;99.90
38726;DHT22;24474;48.906;8.808;2023-12-22T10:57:26;7.70;99.90
38726;DHT22;24474;48.906;8.808;2023-12-22T10:59:57;7.70;99.90
38726;DHT22;24474;48.906;8.808;2023-12-22T11:02:28;7.70;99.90
38726;DHT22;24474;48.906;8.808;2023-12-22T11:05:04;7.70;99.90
38726;DHT22;24474;48.906;8.808;2023-12-22T11:07:35;7.70;99.90
38726;DHT22;24474;48.906;8.808;2023-12-22T11:10:04;7.70;99.90
38726;DHT22;24474;48.906;8.808;2023-12-22T11:12:32;7.70;99.90
38726;DHT22;24474;48.906;8.808;2023-12-22T11:14:59;7.60;99.90
38726;DHT22;24474;48.906;8.808;2023-12-22T11:17:26;7.60;99.90
38726;DHT22;24474;48.906;8.808;2023-12-22T11:19:55;7.60;99.90
38726;DHT22;24474;48.906;8.808;2023-12-22T11:22:28;7.60;99.90
38726;DHT22;24474;48.906;8.808;2023-12-22T11:24:58;7.60;99.90
38726;DHT22;24474;48.906;8.808;2023-12-22T11:27:26;7.60;99.90
38726;DHT22;24474;48.906;8.808;2023-12-22T11:29:52;7.60;99.90
38726;DHT22;24474;48.906;8.808;2023-12-22T11:32:19;7.60;99.90
38726;DHT22;24474;48.906;8.808;2023-12-22T11:34:48;7.60;99.90
38726;DHT22;24474;48.906;8.808;2023-12-22T11:37:15;7.60;99.90
38726;DHT22;24474;48.906;8.808;2023-12-22T11:39:44;7.50;99.90
38726;DHT22;24474;48.906;8.808;2023-12-22T11:42:14;7.60;99.90
38726;DHT22;24474;48.906;8.808;2023-12-22T11:44:41;7.60;99.90
38726;DHT22;24474;48.906;8.808;2023-12-22T11:47:08;7.50;99.90
38726;DHT22;24474;48.906;8.808;2023-12-22T11:49:37;7.50;99.90
38726;DHT22;24474;48.906;8.808;2023-12-22T11:52:13;7.50;99.90
38726;DHT22;24474;48.906;8.808;2023-12-22T11:54:52;7.50;99.90
38726;DHT22;24474;48.906;8.808;2023-12-22T12:02:37;7.50;99.90
38726;DHT22;24474;48.906;8.808;2023-12-22T12:05:07;7.50;99.90
38726;DHT22;24474;48.906;8.808;2023-12-22T12:07:45;7.50;99.90
38726;DHT22;24474;48.906;8.808;2023-12-22T12:10:12;7.50;99.90
38726;DHT22;24474;48.906;8.808;2023-12-22T12:12:39;7.50;99.90
38726;DHT22;24474;48.906;8.808;2023-12-22T12:15:18;7.50;99.90
38726;DHT22;24474;48.906;8.808;2023-12-22T12:17:50;7.50;99.90
38726;DHT22;24474;48.906;8.808;2023-12-22T12:20:16;7.50;99.90
38726;DHT22;24474;48.906;8.808;2023-12-22T12:22:43;7.50;99.90
38726;DHT22;24474;48.906;8.808;2023-12-22T12:25:10;7.50;99.90
38726;DHT22;24474;48.906;8.808;2023-12-22T12:27:37;7.50;99.90
38726;DHT22;24474;48.906;8.808;2023-12-22T12:30:12;7.50;99.90
38726;DHT22;24474;48.906;8.808;2023-12-22T12:32:43;7.50;99.90
38726;DHT22;24474;48.906;8.808;2023-12-22T12:35:11;7.60;99.90
38726;DHT22;24474;48.906;8.808;2023-12-22T12:37:38;7.50;99.90
38726;DHT22;24474;48.906;8.808;2023-12-22T12:40:07;7.60;99.90
38726;DHT22;24474;48.906;8.808;2023-12-22T12:42:36;7.60;99.90
38726;DHT22;24474;48.906;8.808;2023-12-22T12:45:04;7.70;99.90
38726;DHT22;24474;48.906;8.808;2023-12-22T12:47:30;7.70;99.90
38726;DHT22;24474;48.906;8.808;2023-12-22T12:49:57;7.70;99.90
38726;DHT22;24474;48.906;8.808;2023-12-22T12:52:23;7.70;99.90
38726;DHT22;24474;48.906;8.808;2023-12-22T12:54:51;7.70;99.90
38726;DHT22;24474;48.906;8.808;2023-12-22T12:57:17;7.80;99.90
38726;DHT22;24474;48.906;8.808;2023-12-22T12:59:46;7.80;99.90
38726;DHT22;24474;48.906;8.808;2023-12-22T13:02:13;7.80;99.90
38726;DHT22;24474;48.906;8.808;2023-12-22T13:04:39;7.80;99.90
38726;DHT22;24474;48.906;8.808;2023-12-22T13:07:05;7.90;99.90
38726;DHT22;24474;48.906;8.808;2023-12-22T13:09:34;7.90;99.90
38726;DHT22;24474;48.906;8.808;2023-12-22T13:12:00;7.90;99.90
38726;DHT22;24474;48.906;8.808;2023-12-22T13:14:26;7.90;99.90
38726;DHT22;24474;48.906;8.808;2023-12-22T13:16:56;8.00;99.90
38726;DHT22;24474;48.906;8.808;2023-12-22T13:19:26;8.00;99.90
38726;DHT22;24474;48.906;8.808;2023-12-22T13:21:56;8.00;99.90
38726;DHT22;24474;48.906;8.808;2023-12-22T13:24:22;8.10;99.90
38726;DHT22;24474;48.906;8.808;2023-12-22T13:26:59;8.10;99.90
38726;DHT22;24474;48.906;8.808;2023-12-22T13:29:25;8.10;99.90
38726;DHT22;24474;48.906;8.808;2023-12-22T13:31:51;8.10;99.90
38726;DHT22;24474;48.906;8.808;2023-12-22T13:34:16;8.10;99.90
38726;DHT22;24474;48.906;8.808;2023-12-22T13:36:42;8.20;99.90
38726;DHT22;24474;48.906;8.808;2023-12-22T13:39:09;8.20;99.90
38726;DHT22;24474;48.906;8.808;2023-12-22T13:41:35;8.20;99.90
38726;DHT22;24474;48.906;8.808;2023-12-22T13:44:04;8.20;99.90
38726;DHT22;24474;48.906;8.808;2023-12-22T13:46:30;8.20;99.90
38726;DHT22;24474;48.906;8.808;2023-12-22T13:48:57;8.20;99.90
38726;DHT22;24474;48.906;8.808;2023-12-22T13:51:23;8.20;99.90
38726;DHT22;24474;48.906;8.808;2023-12-22T13:53:50;8.30;99.90
38726;DHT22;24474;48.906;8.808;2023-12-22T13:56:15;8.30;99.90
38726;DHT22;24474;48.906;8.808;2023-12-22T13:58:45;8.30;99.90
38726;DHT22;24474;48.906;8.808;2023-12-22T14:01:14;8.30;99.90
38726;DHT22;24474;48.906;8.808;2023-12-22T14:03:41;8.30;99.90
38726;DHT22;24474;48.906;8.808;2023-12-22T14:06:07;8.40;99.90
38726;DHT22;24474;48.906;8.808;2023-12-22T14:08:35;8.40;99.90
38726;DHT22;24474;48.906;8.808;2023-12-22T14:11:01;8.40;99.90
38726;DHT22;24474;48.906;8.808;2023-12-22T14:13:27;8.40;99.90
38726;DHT22;24474;48.906;8.808;2023-12-22T14:15:53;8.40;99.90
38726;DHT22;24474;48.906;8.808;2023-12-22T14:18:18;8.50;99.90
38726;DHT22;24474;48.906;8.808;2023-12-22T14:20:44;8.50;99.90
38726;DHT22;24474;48.906;8.808;2023-12-22T14:23:11;8.50;99.90
38726;DHT22;24474;48.906;8.808;2023-12-22T14:25:42;8.50;99.90
38726;DHT22;24474;48.906;8.808;2023-12-22T14:28:08;8.50;99.90
38726;DHT22;24474;48.906;8.808;2023-12-22T14:30:35;8.60;99.90
38726;DHT22;24474;48.906;8.808;2023-12-22T14:33:00;8.60;99.90
38726;DHT22;24474;48.906;8.808;2023-12-22T14:35:26;8.60;99.90
38726;DHT22;24474;48.906;8.808;2023-12-22T14:37:52;8.60;99.90
38726;DHT22;24474;48.906;8.808;2023-12-22T14:40:17;8.60;99.90
38726;DHT22;24474;48.906;8.808;2023-12-22T14:42:43;8.60;99.90
38726;DHT22;24474;48.906;8.808;2023-12-22T14:45:09;8.60;99.90
38726;DHT22;24474;48.906;8.808;2023-12-22T14:47:35;8.60;99.90
38726;DHT22;24474;48.906;8.808;2023-12-22T14:50:01;8.70;99.90
38726;DHT22;24474;48.906;8.808;2023-12-22T14:52:30;8.60;99.90
38726;DHT22;24474;48.906;8.808;2023-12-22T14:54:58;8.70;99.90
38726;DHT22;24474;48.906;8.808;2023-12-22T14:57:24;8.70;99.90
38726;DHT22;24474;48.906;8.808;2023-12-22T14:59:49;8.70;99.90
38726;DHT22;24474;48.906;8.808;2023-12-22T15:02:15;8.70;99.90
38726;DHT22;24474;48.906;8.808;2023-12-22T15:04:41;8.70;99.90
38726;DHT22;24474;48.906;8.808;2023-12-22T15:07:07;8.70;99.90
38726;DHT22;24474;48.906;8.808;2023-12-22T15:09:33;8.70;99.90
38726;DHT22;24474;48.906;8.808;2023-12-22T15:11:58;8.70;99.90
38726;DHT22;24474;48.906;8.808;2023-12-22T15:14:27;8.70;99.90
38726;DHT22;24474;48.906;8.808;2023-12-22T15:16:53;8.70;99.90
38726;DHT22;24474;48.906;8.808;2023-12-22T15:19:18;8.60;99.90
38726;DHT22;24474;48.906;8.808;2023-12-22T15:21:44;8.70;99.90
38726;DHT22;24474;48.906;8.808;2023-12-22T15:24:10;8.70;99.90
38726;DHT22;24474;48.906;8.808;2023-12-22T15:26:36;8.70;99.90
38726;DHT22;24474;48.906;8.808;2023-12-22T15:29:05;8.70;99.90
38726;DHT22;24474;48.906;8.808;2023-12-22T15:31:30;8.60;99.90
38726;DHT22;24474;48.906;8.808;2023-12-22T15:33:57;8.70;99.90
38726;DHT22;24474;48.906;8.808;2023-12-22T15:36:23;8.70;99.90
38726;DHT22;24474;48.906;8.808;2023-12-22T15:38:50;8.70;99.90
38726;DHT22;24474;48.906;8.808;2023-12-22T15:41:19;8.70;99.90
38726;DHT22;24474;48.906;8.808;2023-12-22T15:43:48;8.70;99.90
38726;DHT22;24474;48.906;8.808;2023-12-22T15:46:16;8.70;99.90
38726;DHT22;24474;48.906;8.808;2023-12-22T15:48:42;8.80;99.90
38726;DHT22;24474;48.906;8.808;2023-12-22T15:51:10;8.80;99.90